sensor_id;sensor_type;location;lat;lon;timestamp;pressure;altitude;pressure_sealevel;temperature;humidity
10145;BME280;5113;41.822;23.564;2023-06-22T00:01:51;-11442.19;;;18.34;100.00
10145;BME280;5113;41.822;23.564;2023-06-22T00:04:58;-11435.00;;;18.08;100.00
10145;BME280;5113;41.822;23.564;2023-06-22T00:08:04;-11424.16;;;17.69;100.00
10145;BME280;5113;41.822;23.564;2023-06-22T00:11:12;-11429.94;;;17.90;100.00
10145;BME280;5113;41.822;23.564;2023-06-22T00:14:19;-11435.84;;;18.11;100.00
10145;BME280;5113;41.822;23.564;2023-06-22T00:17:25;-11435.69;;;18.10;100.00
10145;BME280;5113;41.822;23.564;2023-06-22T00:20:32;-11450.66;;;18.64;100.00
10145;BME280;5113;41.822;23.564;2023-06-22T00:23:42;-11453.91;;;18.76;100.00
10145;BME280;5113;41.822;23.564;2023-06-22T00:26:50;-11458.97;;;18.94;100.00
10145;BME280;5113;41.822;23.564;2023-06-22T00:29:56;-11461.22;;;19.02;100.00
10145;BME280;5113;41.822;23.564;2023-06-22T00:33:03;-11463.19;;;19.09;100.00
10145;BME280;5113;41.822;23.564;2023-06-22T00:36:12;-11455.31;;;18.81;100.00
10145;BME280;5113;41.822;23.564;2023-06-22T00:39:24;-11467.44;;;19.25;100.00
10145;BME280;5113;41.822;23.564;2023-06-22T00:42:31;-11453.47;;;18.74;100.00
10145;BME280;5113;41.822;23.564;2023-06-22T00:45:38;-11440.50;;;18.28;100.00
10145;BME280;5113;41.822;23.564;2023-06-22T00:48:44;-11440.91;;;18.29;100.00
10145;BME280;5113;41.822;23.564;2023-06-22T00:51:51;-11444.88;;;18.43;100.00
10145;BME280;5113;41.822;23.564;2023-06-22T00:54:58;-11449.09;;;18.59;100.00
10145;BME280;5113;41.822;23.564;2023-06-22T00:58:09;-11448.94;;;18.58;100.00
10145;BME280;5113;41.822;23.564;2023-06-22T01:01:16;-11456.16;;;18.84;100.00
10145;BME280;5113;41.822;23.564;2023-06-22T01:04:24;-11457.97;;;18.91;100.00
10145;BME280;5113;41.822;23.564;2023-06-22T01:07:43;-11459.53;;;18.96;100.00
10145;BME280;5113;41.822;23.564;2023-06-22T01:10:57;-11443.88;;;18.40;100.00
10145;BME280;5113;41.822;23.564;2023-06-22T01:14:14;-11440.22;;;18.27;100.00
10145;BME280;5113;41.822;23.564;2023-06-22T01:17:23;-11423.59;;;17.67;100.00
10145;BME280;5113;41.822;23.564;2023-06-22T01:20:31;-11407.09;;;17.07;100.00
10145;BME280;5113;41.822;23.564;2023-06-22T01:23:56;-11392.16;;;16.54;100.00
10145;BME280;5113;41.822;23.564;2023-06-22T01:27:17;-11427.66;;;17.81;100.00
10145;BME280;5113;41.822;23.564;2023-06-22T01:30:28;-11425.13;;;17.72;100.00
10145;BME280;5113;41.822;23.564;2023-06-22T01:33:39;-11427.94;;;17.83;100.00
10145;BME280;5113;41.822;23.564;2023-06-22T01:36:47;-11413.84;;;17.32;100.00
10145;BME280;5113;41.822;23.564;2023-06-22T01:39:55;-11422.31;;;17.62;100.00
10145;BME280;5113;41.822;23.564;2023-06-22T01:43:02;-11429.09;;;17.87;100.00
10145;BME280;5113;41.822;23.564;2023-06-22T01:46:11;-11434.16;;;18.05;100.00
10145;BME280;5113;41.822;23.564;2023-06-22T01:49:18;-11437.53;;;18.17;100.00
10145;BME280;5113;41.822;23.564;2023-06-22T01:52:25;-11425.97;;;17.75;100.00
10145;BME280;5113;41.822;23.564;2023-06-22T01:55:31;-11443.31;;;18.38;100.00
10145;BME280;5113;41.822;23.564;2023-06-22T01:58:43;-11412.44;;;17.27;100.00
10145;BME280;5113;41.822;23.564;2023-06-22T02:01:56;-11401.72;;;16.88;100.00
10145;BME280;5113;41.822;23.564;2023-06-22T02:05:06;-11405.69;;;17.02;100.00
10145;BME280;5113;41.822;23.564;2023-06-22T02:08:19;-11404.00;;;16.96;100.00
10145;BME280;5113;41.822;23.564;2023-06-22T02:11:26;-11382.28;;;16.18;100.00
10145;BME280;5113;41.822;23.564;2023-06-22T02:14:34;-11392.72;;;16.56;100.00
10145;BME280;5113;41.822;23.564;2023-06-22T02:17:43;-11379.91;;;16.09;100.00
10145;BME280;5113;41.822;23.564;2023-06-22T02:20:50;-11395.25;;;16.65;100.00
10145;BME280;5113;41.822;23.564;2023-06-22T02:23:57;-11417.38;;;17.44;100.00
10145;BME280;5113;41.822;23.564;2023-06-22T02:27:04;-11414.00;;;17.32;100.00
10145;BME280;5113;41.822;23.564;2023-06-22T02:30:12;-11420.34;;;17.55;100.00
10145;BME280;5113;41.822;23.564;2023-06-22T02:33:21;-11420.75;;;17.57;100.00
10145;BME280;5113;41.822;23.564;2023-06-22T02:36:27;-11415.25;;;17.37;100.00
10145;BME280;5113;41.822;23.564;2023-06-22T02:39:35;-11415.81;;;17.39;100.00
10145;BME280;5113;41.822;23.564;2023-06-22T02:42:42;-11419.78;;;17.53;100.00
10145;BME280;5113;41.822;23.564;2023-06-22T02:45:48;-11411.19;;;17.22;100.00
10145;BME280;5113;41.822;23.564;2023-06-22T02:48:56;-11387.91;;;16.38;100.00
10145;BME280;5113;41.822;23.564;2023-06-22T02:52:03;-11365.81;;;15.59;100.00
10145;BME280;5113;41.822;23.564;2023-06-22T02:55:10;-11366.22;;;15.60;100.00
10145;BME280;5113;41.822;23.564;2023-06-22T02:58:16;-11389.63;;;16.44;100.00
10145;BME280;5113;41.822;23.564;2023-06-22T03:01:22;-11383.41;;;16.22;100.00
10145;BME280;5113;41.822;23.564;2023-06-22T03:04:30;-11371.44;;;15.79;100.00
10145;BME280;5113;41.822;23.564;2023-06-22T03:07:37;-11367.22;;;15.64;100.00
10145;BME280;5113;41.822;23.564;2023-06-22T03:10:43;-11393.13;;;16.57;100.00
10145;BME280;5113;41.822;23.564;2023-06-22T03:13:49;-11407.09;;;17.07;100.00
10145;BME280;5113;41.822;23.564;2023-06-22T03:16:57;-11401.72;;;16.88;100.00
10145;BME280;5113;41.822;23.564;2023-06-22T03:20:10;-11401.72;;;16.88;100.00
10145;BME280;5113;41.822;23.564;2023-06-22T03:23:18;-11396.38;;;16.69;100.00
10145;BME280;5113;41.822;23.564;2023-06-22T03:26:24;-11399.19;;;16.79;100.00
10145;BME280;5113;41.822;23.564;2023-06-22T03:29:31;-11379.03;;;16.06;100.00
10145;BME280;5113;41.822;23.564;2023-06-22T03:32:39;-11372.44;;;15.82;100.00
10145;BME280;5113;41.822;23.564;2023-06-22T03:35:46;-11368.75;;;15.69;100.00
10145;BME280;5113;41.822;23.564;2023-06-22T03:38:53;-11370.16;;;15.74;100.00
10145;BME280;5113;41.822;23.564;2023-06-22T03:41:59;-11376.22;;;15.96;100.00
10145;BME280;5113;41.822;23.564;2023-06-22T03:45:07;-11389.03;;;16.42;100.00
10145;BME280;5113;41.822;23.564;2023-06-22T03:48:13;-11420.34;;;17.55;100.00
10145;BME280;5113;41.822;23.564;2023-06-22T03:51:20;-11432.19;;;17.98;100.00
10145;BME280;5113;41.822;23.564;2023-06-22T03:54:28;-11425.13;;;17.72;100.00
10145;BME280;5113;41.822;23.564;2023-06-22T03:57:34;-11424.16;;;17.69;100.00
10145;BME280;5113;41.822;23.564;2023-06-22T04:00:40;-11424.84;;;17.71;100.00
10145;BME280;5113;41.822;23.564;2023-06-22T04:03:46;-11414.28;;;17.33;100.00
10145;BME280;5113;41.822;23.564;2023-06-22T04:06:55;-11397.09;;;16.71;100.00
10145;BME280;5113;41.822;23.564;2023-06-22T04:10:02;-11396.09;;;16.68;100.00
10145;BME280;5113;41.822;23.564;2023-06-22T04:13:09;-11399.19;;;16.79;100.00
10145;BME280;5113;41.822;23.564;2023-06-22T04:16:15;-11409.63;;;17.16;100.00
10145;BME280;5113;41.822;23.564;2023-06-22T04:19:21;-11414.41;;;17.34;100.00
10145;BME280;5113;41.822;23.564;2023-06-22T04:22:29;-11424.84;;;17.71;100.00
10145;BME280;5113;41.822;23.564;2023-06-22T04:25:36;-11428.94;;;17.86;100.00
10145;BME280;5113;41.822;23.564;2023-06-22T04:28:42;-11460.94;;;19.01;100.00
10145;BME280;5113;41.822;23.564;2023-06-22T04:31:55;-11452.19;;;18.70;100.00
10145;BME280;5113;41.822;23.564;2023-06-22T04:35:03;-11450.50;;;18.64;100.00
10145;BME280;5113;41.822;23.564;2023-06-22T04:38:13;-11458.69;;;18.93;100.00
10145;BME280;5113;41.822;23.564;2023-06-22T04:41:19;-11455.59;;;18.82;100.00
10145;BME280;5113;41.822;23.564;2023-06-22T04:44:29;-11480.53;;;19.72;100.00
10145;BME280;5113;41.822;23.564;2023-06-22T04:47:35;-11485.34;;;19.89;100.00
10145;BME280;5113;41.822;23.564;2023-06-22T04:50:44;-11493.94;;;20.20;100.00
10145;BME280;5113;41.822;23.564;2023-06-22T04:53:51;-11502.00;;;20.49;100.00
10145;BME280;5113;41.822;23.564;2023-06-22T04:57:06;-11501.56;;;20.48;100.00
10145;BME280;5113;41.822;23.564;2023-06-22T05:00:15;-11524.97;;;21.32;93.69
10145;BME280;5113;41.822;23.564;2023-06-22T05:03:24;-11529.78;;;21.49;91.93
10145;BME280;5113;41.822;23.564;2023-06-22T05:06:31;-11525.41;;;21.33;92.36
10145;BME280;5113;41.822;23.564;2023-06-22T05:09:39;-11537.81;;;21.78;90.78
10145;BME280;5113;41.822;23.564;2023-06-22T05:12:46;-11519.34;;;21.12;94.69
10145;BME280;5113;41.822;23.564;2023-06-22T05:15:53;-11555.19;;;22.40;85.91
10145;BME280;5113;41.822;23.564;2023-06-22T05:19:07;-11551.66;;;22.28;84.08
10145;BME280;5113;41.822;23.564;2023-06-22T05:22:13;-11554.91;;;22.39;86.41
10145;BME280;5113;41.822;23.564;2023-06-22T05:25:21;-11573.53;;;23.07;80.02
10145;BME280;5113;41.822;23.564;2023-06-22T05:28:27;-11577.06;;;23.19;78.83
10145;BME280;5113;41.822;23.564;2023-06-22T05:34:39;-11575.50;;;23.14;77.09
10145;BME280;5113;41.822;23.564;2023-06-22T05:37:46;-11553.47;;;22.34;80.33
10145;BME280;5113;41.822;23.564;2023-06-22T05:40:54;-11562.09;;;22.65;78.24
10145;BME280;5113;41.822;23.564;2023-06-22T05:44:01;-11563.34;;;22.70;75.13
10145;BME280;5113;41.822;23.564;2023-06-22T05:47:07;-11558.69;;;22.53;79.55
10145;BME280;5113;41.822;23.564;2023-06-22T05:50:14;-11564.34;;;22.73;81.76
10145;BME280;5113;41.822;23.564;2023-06-22T05:53:20;-11563.63;;;22.71;80.44
10145;BME280;5113;41.822;23.564;2023-06-22T05:56:28;-11564.50;;;22.74;76.54
10145;BME280;5113;41.822;23.564;2023-06-22T05:59:35;-11545.88;;;22.07;77.65
10145;BME280;5113;41.822;23.564;2023-06-22T06:02:41;-11585.94;;;23.51;70.50
10145;BME280;5113;41.822;23.564;2023-06-22T06:05:49;-11591.16;;;23.70;72.24
10145;BME280;5113;41.822;23.564;2023-06-22T06:08:55;-11585.81;;;23.51;73.58
10145;BME280;5113;41.822;23.564;2023-06-22T06:12:04;-11589.19;;;23.63;73.00
10145;BME280;5113;41.822;23.564;2023-06-22T06:15:11;-11608.66;;;24.33;70.25
10145;BME280;5113;41.822;23.564;2023-06-22T06:18:17;-11602.75;;;24.12;71.64
10145;BME280;5113;41.822;23.564;2023-06-22T06:21:23;-11579.16;;;23.27;73.50
10145;BME280;5113;41.822;23.564;2023-06-22T06:24:32;-11601.75;;;24.08;72.86
10145;BME280;5113;41.822;23.564;2023-06-22T06:27:39;-11622.22;;;24.82;72.04
10145;BME280;5113;41.822;23.564;2023-06-22T06:30:46;-11615.31;;;24.57;70.39
10145;BME280;5113;41.822;23.564;2023-06-22T06:33:52;-11631.81;;;25.16;68.20
10145;BME280;5113;41.822;23.564;2023-06-22T06:36:59;-11621.81;;;24.80;65.02
10145;BME280;5113;41.822;23.564;2023-06-22T06:40:06;-11669.97;;;26.53;59.63
10145;BME280;5113;41.822;23.564;2023-06-22T06:43:16;-11641.28;;;25.50;59.30
10145;BME280;5113;41.822;23.564;2023-06-22T06:46:23;-11664.44;;;26.34;57.62
10145;BME280;5113;41.822;23.564;2023-06-22T06:49:30;-11658.94;;;26.14;56.99
10145;BME280;5113;41.822;23.564;2023-06-22T06:52:36;-11642.41;;;25.54;61.72
10145;BME280;5113;41.822;23.564;2023-06-22T06:55:43;-11676.44;;;26.77;60.21
10145;BME280;5113;41.822;23.564;2023-06-22T06:58:52;-11682.94;;;27.00;57.51
10145;BME280;5113;41.822;23.564;2023-06-22T07:01:59;-11684.50;;;27.06;58.73
10145;BME280;5113;41.822;23.564;2023-06-22T07:05:05;-11685.06;;;27.08;58.96
10145;BME280;5113;41.822;23.564;2023-06-22T07:08:11;-11664.44;;;26.34;58.86
10145;BME280;5113;41.822;23.564;2023-06-22T07:11:18;-11680.13;;;26.90;57.54
10145;BME280;5113;41.822;23.564;2023-06-22T07:14:25;-11665.56;;;26.38;58.98
10145;BME280;5113;41.822;23.564;2023-06-22T07:17:32;-11659.06;;;26.14;59.88
10145;BME280;5113;41.822;23.564;2023-06-22T07:20:38;-11691.56;;;27.31;55.26
10145;BME280;5113;41.822;23.564;2023-06-22T07:23:46;-11721.50;;;28.39;54.18
10145;BME280;5113;41.822;23.564;2023-06-22T07:26:52;-11693.41;;;27.38;55.06
10145;BME280;5113;41.822;23.564;2023-06-22T07:30:00;-11664.72;;;26.35;54.76
10145;BME280;5113;41.822;23.564;2023-06-22T07:33:07;-11711.63;;;28.03;53.10
10145;BME280;5113;41.822;23.564;2023-06-22T07:36:14;-11713.03;;;28.08;50.66
10145;BME280;5113;41.822;23.564;2023-06-22T07:39:20;-11729.41;;;28.67;51.48
10145;BME280;5113;41.822;23.564;2023-06-22T07:42:30;-11694.25;;;27.41;53.57
10145;BME280;5113;41.822;23.564;2023-06-22T07:45:39;-11727.59;;;28.60;51.79
10145;BME280;5113;41.822;23.564;2023-06-22T07:48:47;-11750.91;;;29.44;50.23
10145;BME280;5113;41.822;23.564;2023-06-22T07:51:53;-11690.16;;;27.26;52.95
10145;BME280;5113;41.822;23.564;2023-06-22T07:55:00;-11717.28;;;28.23;51.14
10145;BME280;5113;41.822;23.564;2023-06-22T07:58:07;-11761.63;;;29.83;48.90
10145;BME280;5113;41.822;23.564;2023-06-22T08:01:15;-11735.06;;;28.87;48.47
10145;BME280;5113;41.822;23.564;2023-06-22T08:04:21;-11748.22;;;29.35;48.29
10145;BME280;5113;41.822;23.564;2023-06-22T08:07:27;-11733.81;;;28.83;48.53
10145;BME280;5113;41.822;23.564;2023-06-22T08:10:34;-11758.53;;;29.72;50.29
10145;BME280;5113;41.822;23.564;2023-06-22T08:13:41;-11751.75;;;29.47;48.81
10145;BME280;5113;41.822;23.564;2023-06-22T08:16:48;-11721.22;;;28.38;48.13
10145;BME280;5113;41.822;23.564;2023-06-22T08:19:55;-11750.47;;;29.43;48.85
10145;BME280;5113;41.822;23.564;2023-06-22T08:23:01;-11755.28;;;29.60;45.55
10145;BME280;5113;41.822;23.564;2023-06-22T08:26:11;-11790.88;;;30.88;44.46
10145;BME280;5113;41.822;23.564;2023-06-22T08:29:18;-11768.97;;;30.09;45.91
10145;BME280;5113;41.822;23.564;2023-06-22T08:32:26;-11749.63;;;29.40;46.11
10145;BME280;5113;41.822;23.564;2023-06-22T08:35:33;-11797.38;;;31.11;45.24
10145;BME280;5113;41.822;23.564;2023-06-22T08:38:40;-11753.72;;;29.54;47.01
10145;BME280;5113;41.822;23.564;2023-06-22T08:41:46;-11789.59;;;30.83;42.91
10145;BME280;5113;41.822;23.564;2023-06-22T08:44:52;-11780.56;;;30.51;41.58
10145;BME280;5113;41.822;23.564;2023-06-22T08:48:00;-11807.13;;;31.46;40.44
10145;BME280;5113;41.822;23.564;2023-06-22T08:51:07;-11778.03;;;30.42;42.16
10145;BME280;5113;41.822;23.564;2023-06-22T08:54:13;-11820.84;;;31.96;42.53
10145;BME280;5113;41.822;23.564;2023-06-22T08:57:20;-11812.91;;;31.67;41.21
10145;BME280;5113;41.822;23.564;2023-06-22T09:00:27;-11767.00;;;30.02;42.61
10145;BME280;5113;41.822;23.564;2023-06-22T09:03:38;-11795.41;;;31.04;42.07
10145;BME280;5113;41.822;23.564;2023-06-22T09:06:45;-11805.56;;;31.41;40.61
10145;BME280;5113;41.822;23.564;2023-06-22T09:09:51;-11828.75;;;32.24;40.51
10145;BME280;5113;41.822;23.564;2023-06-22T09:12:58;-11813.34;;;31.69;38.24
10145;BME280;5113;41.822;23.564;2023-06-22T09:16:05;-11846.69;;;32.89;37.94
10145;BME280;5113;41.822;23.564;2023-06-22T09:19:13;-11811.50;;;31.62;38.95
10145;BME280;5113;41.822;23.564;2023-06-22T09:22:19;-11820.97;;;31.96;38.34
10145;BME280;5113;41.822;23.564;2023-06-22T09:25:25;-11816.88;;;31.81;38.50
10145;BME280;5113;41.822;23.564;2023-06-22T09:28:32;-11851.94;;;33.07;34.33
10145;BME280;5113;41.822;23.564;2023-06-22T09:31:39;-11878.63;;;34.03;32.37
10145;BME280;5113;41.822;23.564;2023-06-22T09:34:47;-11872.13;;;33.80;32.50
10145;BME280;5113;41.822;23.564;2023-06-22T09:37:53;-11834.53;;;32.45;34.10
10145;BME280;5113;41.822;23.564;2023-06-22T09:41:00;-11840.47;;;32.66;35.02
10145;BME280;5113;41.822;23.564;2023-06-22T09:44:06;-11814.06;;;31.71;33.95
10145;BME280;5113;41.822;23.564;2023-06-22T09:47:13;-11841.88;;;32.71;33.37
10145;BME280;5113;41.822;23.564;2023-06-22T09:50:21;-11846.69;;;32.89;33.61
10145;BME280;5113;41.822;23.564;2023-06-22T09:53:27;-11864.78;;;33.54;34.48
10145;BME280;5113;41.822;23.564;2023-06-22T09:56:33;-11867.75;;;33.64;33.02
10145;BME280;5113;41.822;23.564;2023-06-22T09:59:41;-11841.59;;;32.70;33.47
10145;BME280;5113;41.822;23.564;2023-06-22T10:02:47;-11851.94;;;33.07;32.86
10145;BME280;5113;41.822;23.564;2023-06-22T10:05:55;-11823.25;;;32.04;33.84
10145;BME280;5113;41.822;23.564;2023-06-22T10:09:02;-11869.31;;;33.70;32.78
10145;BME280;5113;41.822;23.564;2023-06-22T10:12:08;-11831.72;;;32.35;33.54
10145;BME280;5113;41.822;23.564;2023-06-22T10:15:15;-11905.22;;;34.99;33.02
10145;BME280;5113;41.822;23.564;2023-06-22T10:18:22;-11892.34;;;34.53;31.78
10145;BME280;5113;41.822;23.564;2023-06-22T10:21:30;-11902.38;;;34.89;32.51
10145;BME280;5113;41.822;23.564;2023-06-22T10:24:38;-11892.50;;;34.53;31.85
10145;BME280;5113;41.822;23.564;2023-06-22T10:27:49;-11850.38;;;33.02;32.98
10145;BME280;5113;41.822;23.564;2023-06-22T10:30:55;-11896.44;;;34.67;31.63
10145;BME280;5113;41.822;23.564;2023-06-22T10:34:02;-11851.50;;;33.06;33.88
10145;BME280;5113;41.822;23.564;2023-06-22T10:37:10;-11895.88;;;34.65;31.98
10145;BME280;5113;41.822;23.564;2023-06-22T10:40:17;-11844.59;;;32.81;33.90
10145;BME280;5113;41.822;23.564;2023-06-22T10:43:24;-11844.88;;;32.82;34.08
10145;BME280;5113;41.822;23.564;2023-06-22T10:46:31;-11909.16;;;35.13;31.81
10145;BME280;5113;41.822;23.564;2023-06-22T10:49:37;-11883.00;;;34.19;33.46
10145;BME280;5113;41.822;23.564;2023-06-22T10:52:45;-11892.78;;;34.54;31.33
10145;BME280;5113;41.822;23.564;2023-06-22T10:55:52;-11928.69;;;35.83;32.10
10145;BME280;5113;41.822;23.564;2023-06-22T10:59:01;-11947.06;;;36.49;30.85
10145;BME280;5113;41.822;23.564;2023-06-22T11:02:08;-11940.53;;;36.26;30.20
10145;BME280;5113;41.822;23.564;2023-06-22T11:05:14;-11941.41;;;36.29;29.73
10145;BME280;5113;41.822;23.564;2023-06-22T11:08:24;-11962.31;;;37.04;29.70
10145;BME280;5113;41.822;23.564;2023-06-22T11:11:31;-11889.09;;;34.41;32.34
10145;BME280;5113;41.822;23.564;2023-06-22T11:14:38;-11890.78;;;34.47;32.01
10145;BME280;5113;41.822;23.564;2023-06-22T11:17:45;-11890.09;;;34.44;32.09
10145;BME280;5113;41.822;23.564;2023-06-22T11:20:51;-11905.78;;;35.01;31.59
10145;BME280;5113;41.822;23.564;2023-06-22T11:23:59;-11870.16;;;33.73;33.90
10145;BME280;5113;41.822;23.564;2023-06-22T11:27:06;-11864.66;;;33.53;32.79
10145;BME280;5113;41.822;23.564;2023-06-22T11:30:13;-11907.75;;;35.08;33.18
10145;BME280;5113;41.822;23.564;2023-06-22T11:33:19;-11851.50;;;33.06;33.90
10145;BME280;5113;41.822;23.564;2023-06-22T11:36:26;-11881.59;;;34.14;32.96
10145;BME280;5113;41.822;23.564;2023-06-22T11:39:34;-11910.72;;;35.19;33.18
10145;BME280;5113;41.822;23.564;2023-06-22T11:42:47;-11883.72;;;34.22;34.95
10145;BME280;5113;41.822;23.564;2023-06-22T11:45:53;-11869.88;;;33.72;33.02
10145;BME280;5113;41.822;23.564;2023-06-22T11:49:01;-11866.47;;;33.60;36.39
10145;BME280;5113;41.822;23.564;2023-06-22T11:52:08;-11904.38;;;34.96;32.22
10145;BME280;5113;41.822;23.564;2023-06-22T11:55:16;-11933.75;;;36.01;31.24
10145;BME280;5113;41.822;23.564;2023-06-22T11:58:22;-11879.22;;;34.05;35.72
10145;BME280;5113;41.822;23.564;2023-06-22T12:01:29;-11860.69;;;33.39;34.91
10145;BME280;5113;41.822;23.564;2023-06-22T12:04:38;-11857.44;;;33.27;33.44
10145;BME280;5113;41.822;23.564;2023-06-22T12:07:44;-11906.06;;;35.02;32.05
10145;BME280;5113;41.822;23.564;2023-06-22T12:10:51;-11851.50;;;33.06;35.01
10145;BME280;5113;41.822;23.564;2023-06-22T12:13:59;-11862.94;;;33.47;34.63
10145;BME280;5113;41.822;23.564;2023-06-22T12:17:06;-11864.38;;;33.52;34.86
10145;BME280;5113;41.822;23.564;2023-06-22T12:20:13;-11845.56;;;32.85;35.54
10145;BME280;5113;41.822;23.564;2023-06-22T12:23:19;-11867.03;;;33.62;33.96
10145;BME280;5113;41.822;23.564;2023-06-22T12:26:27;-11906.06;;;35.02;33.15
10145;BME280;5113;41.822;23.564;2023-06-22T12:29:33;-11871.56;;;33.78;33.81
10145;BME280;5113;41.822;23.564;2023-06-22T12:32:39;-11883.72;;;34.22;34.12
10145;BME280;5113;41.822;23.564;2023-06-22T12:35:46;-11888.81;;;34.40;33.49
10145;BME280;5113;41.822;23.564;2023-06-22T12:38:53;-11867.31;;;33.63;34.25
10145;BME280;5113;41.822;23.564;2023-06-22T12:42:01;-11879.78;;;34.07;35.25
10145;BME280;5113;41.822;23.564;2023-06-22T12:45:09;-11848.25;;;32.94;35.30
10145;BME280;5113;41.822;23.564;2023-06-22T12:48:15;-11842.31;;;32.73;35.24
10145;BME280;5113;41.822;23.564;2023-06-22T12:51:21;-11859.97;;;33.36;36.08
10145;BME280;5113;41.822;23.564;2023-06-22T12:54:28;-11867.91;;;33.65;36.65
10145;BME280;5113;41.822;23.564;2023-06-22T12:57:48;-11832.56;;;32.38;38.09
10145;BME280;5113;41.822;23.564;2023-06-22T13:00:55;-11828.31;;;32.23;37.78
10145;BME280;5113;41.822;23.564;2023-06-22T13:04:01;-11853.91;;;33.14;37.64
10145;BME280;5113;41.822;23.564;2023-06-22T13:07:08;-11842.16;;;32.72;38.23
10145;BME280;5113;41.822;23.564;2023-06-22T13:10:26;-11838.78;;;32.60;39.69
10145;BME280;5113;41.822;23.564;2023-06-22T13:13:34;-11848.25;;;32.94;41.11
10145;BME280;5113;41.822;23.564;2023-06-22T13:16:40;-11793.56;;;30.98;44.32
10145;BME280;5113;41.822;23.564;2023-06-22T13:19:47;-11797.81;;;31.13;44.26
10145;BME280;5113;41.822;23.564;2023-06-22T13:22:54;-11856.59;;;33.24;41.52
10145;BME280;5113;41.822;23.564;2023-06-22T13:26:01;-11855.47;;;33.20;41.36
10145;BME280;5113;41.822;23.564;2023-06-22T13:29:09;-11850.09;;;33.01;40.97
10145;BME280;5113;41.822;23.564;2023-06-22T13:32:15;-11855.47;;;33.20;41.42
10145;BME280;5113;41.822;23.564;2023-06-22T13:35:24;-11806.97;;;31.46;44.03
10145;BME280;5113;41.822;23.564;2023-06-22T13:38:30;-11842.47;;;32.73;42.63
10145;BME280;5113;41.822;23.564;2023-06-22T13:41:37;-11834.81;;;32.46;43.14
10145;BME280;5113;41.822;23.564;2023-06-22T13:44:45;-11830.88;;;32.32;44.17
10145;BME280;5113;41.822;23.564;2023-06-22T13:47:51;-11794.28;;;31.00;46.57
10145;BME280;5113;41.822;23.564;2023-06-22T13:50:58;-11772.09;;;30.20;48.08
10145;BME280;5113;41.822;23.564;2023-06-22T13:54:04;-11801.47;;;31.26;46.36
10145;BME280;5113;41.822;23.564;2023-06-22T13:57:28;-11799.78;;;31.20;46.62
10145;BME280;5113;41.822;23.564;2023-06-22T14:00:36;-11828.91;;;32.25;45.36
10145;BME280;5113;41.822;23.564;2023-06-22T14:03:43;-11807.97;;;31.49;45.91
10145;BME280;5113;41.822;23.564;2023-06-22T14:06:51;-11795.25;;;31.04;47.14
10145;BME280;5113;41.822;23.564;2023-06-22T14:10:01;-11803.72;;;31.34;45.79
10145;BME280;5113;41.822;23.564;2023-06-22T14:13:08;-11781.13;;;30.53;48.14
10145;BME280;5113;41.822;23.564;2023-06-22T14:16:15;-11774.06;;;30.28;49.37
10145;BME280;5113;41.822;23.564;2023-06-22T14:19:21;-11768.97;;;30.09;49.85
10145;BME280;5113;41.822;23.564;2023-06-22T14:22:27;-11764.16;;;29.92;51.74
10145;BME280;5113;41.822;23.564;2023-06-22T14:25:34;-11772.78;;;30.23;52.26
10145;BME280;5113;41.822;23.564;2023-06-22T14:28:40;-11763.19;;;29.88;53.44
10145;BME280;5113;41.822;23.564;2023-06-22T14:31:48;-11724.75;;;28.50;55.35
10145;BME280;5113;41.822;23.564;2023-06-22T14:34:55;-11674.59;;;26.70;61.31
10145;BME280;5113;41.822;23.564;2023-06-22T14:38:02;-11680.97;;;26.93;66.70
10145;BME280;5113;41.822;23.564;2023-06-22T14:41:08;-11644.38;;;25.61;71.94
10145;BME280;5113;41.822;23.564;2023-06-22T14:44:19;-11639.44;;;25.44;68.65
10145;BME280;5113;41.822;23.564;2023-06-22T14:47:27;-11652.88;;;25.92;69.10
10145;BME280;5113;41.822;23.564;2023-06-22T14:50:33;-11639.72;;;25.45;71.49
10145;BME280;5113;41.822;23.564;2023-06-22T14:53:39;-11634.78;;;25.27;70.20
10145;BME280;5113;41.822;23.564;2023-06-22T14:56:47;-11654.41;;;25.97;65.87
10145;BME280;5113;41.822;23.564;2023-06-22T14:59:53;-11662.31;;;26.26;65.26
10145;BME280;5113;41.822;23.564;2023-06-22T15:03:01;-11672.22;;;26.61;65.44
10145;BME280;5113;41.822;23.564;2023-06-22T15:06:10;-11669.38;;;26.51;68.96
10145;BME280;5113;41.822;23.564;2023-06-22T15:09:16;-11673.47;;;26.66;67.93
10145;BME280;5113;41.822;23.564;2023-06-22T15:12:22;-11658.22;;;26.11;67.07
10145;BME280;5113;41.822;23.564;2023-06-22T15:15:28;-11674.31;;;26.69;65.69
10145;BME280;5113;41.822;23.564;2023-06-22T15:18:36;-11682.81;;;27.00;63.67
10145;BME280;5113;41.822;23.564;2023-06-22T15:21:43;-11692.53;;;27.35;62.21
10145;BME280;5113;41.822;23.564;2023-06-22T15:24:49;-11693.53;;;27.38;59.50
10145;BME280;5113;41.822;23.564;2023-06-22T15:27:58;-11697.78;;;27.53;59.93
10145;BME280;5113;41.822;23.564;2023-06-22T15:31:04;-11693.81;;;27.39;59.35
10145;BME280;5113;41.822;23.564;2023-06-22T15:34:12;-11689.16;;;27.22;61.26
10145;BME280;5113;41.822;23.564;2023-06-22T15:37:19;-11674.47;;;26.70;62.58
10145;BME280;5113;41.822;23.564;2023-06-22T15:40:25;-11684.50;;;27.06;61.70
10145;BME280;5113;41.822;23.564;2023-06-22T15:43:32;-11680.53;;;26.91;61.87
10145;BME280;5113;41.822;23.564;2023-06-22T15:46:38;-11674.03;;;26.68;62.52
10145;BME280;5113;41.822;23.564;2023-06-22T15:49:47;-11680.25;;;26.90;61.54
10145;BME280;5113;41.822;23.564;2023-06-22T15:52:53;-11668.41;;;26.48;62.89
10145;BME280;5113;41.822;23.564;2023-06-22T15:55:59;-11670.09;;;26.54;63.45
10145;BME280;5113;41.822;23.564;2023-06-22T15:59:05;-11679.97;;;26.89;60.98
10145;BME280;5113;41.822;23.564;2023-06-22T16:02:11;-11683.09;;;27.01;60.97
10145;BME280;5113;41.822;23.564;2023-06-22T16:05:19;-11674.91;;;26.71;62.84
10145;BME280;5113;41.822;23.564;2023-06-22T16:08:26;-11672.91;;;26.64;62.94
10145;BME280;5113;41.822;23.564;2023-06-22T16:11:35;-11674.91;;;26.71;63.70
10145;BME280;5113;41.822;23.564;2023-06-22T16:14:41;-11668.69;;;26.49;65.49
10145;BME280;5113;41.822;23.564;2023-06-22T16:17:48;-11671.78;;;26.60;65.24
10145;BME280;5113;41.822;23.564;2023-06-22T16:20:56;-11664.03;;;26.32;66.17